createdAt,value
2022-08-08T00:01:10.525Z,100910.19
2022-08-08T00:03:47.287Z,100896.19
2022-08-08T00:06:28.378Z,100906.16
2022-08-08T00:09:07.996Z,100907.47
2022-08-08T00:11:46.931Z,100904.47
2022-08-08T00:14:48.048Z,100910.66
2022-08-08T00:17:58.242Z,100908.69
2022-08-08T00:20:26.511Z,100915.69
2022-08-08T00:22:57.775Z,100912.94
2022-08-08T00:25:39.127Z,100905.19
2022-08-08T00:28:35.928Z,100908.97
2022-08-08T00:32:28.663Z,100907.88
2022-08-08T00:34:20.033Z,100904.94
2022-08-08T00:36:54.984Z,100913.84
2022-08-08T00:41:07.708Z,100915.16
2022-08-08T00:42:48.882Z,100908.66
2022-08-08T00:45:42.425Z,100912.94
2022-08-08T00:48:30.161Z,100902.38
2022-08-08T00:51:38.206Z,100911.44
2022-08-08T00:54:46.994Z,100900.66
2022-08-08T00:57:56.992Z,100901.47
2022-08-08T01:00:27.842Z,100893.94
2022-08-08T01:03:58.026Z,100898.28
2022-08-08T01:06:33.099Z,100893.97
2022-08-08T01:09:35.433Z,100892.03
2022-08-08T01:12:50.742Z,100890.56
2022-08-08T01:15:44.141Z,100891.56
2022-08-08T01:18:59.125Z,100889.94
2022-08-08T01:22:07.195Z,100894.94
2022-08-08T01:25:17.628Z,100907.03
2022-08-08T01:28:09.451Z,100896.28
2022-08-08T01:32:02.963Z,100894.13
2022-08-08T01:34:30.993Z,100898.09
2022-08-08T01:37:58.205Z,100892.50
2022-08-08T01:40:30.814Z,100898.94
2022-08-08T01:43:07.244Z,100897.31
2022-08-08T01:45:54.535Z,100909.78
2022-08-08T01:48:34.051Z,100905.50
2022-08-08T01:52:04.484Z,100916.53
2022-08-08T01:55:45.427Z,100909.88
2022-08-08T01:57:19.402Z,100912.81
2022-08-08T02:00:02.263Z,100911.97
2022-08-08T02:02:41.391Z,100913.34
2022-08-08T02:05:23.159Z,100914.47
2022-08-08T02:08:03.888Z,100911.44
2022-08-08T02:10:46.898Z,100918.56
2022-08-08T02:13:54.748Z,100911.38
2022-08-08T02:16:21.331Z,100922.56
2022-08-08T02:18:58.898Z,100916.16
2022-08-08T02:21:42.670Z,100923.09
2022-08-08T02:24:17.055Z,100919.69
2022-08-08T02:26:58.007Z,100921.00
2022-08-08T02:29:46.939Z,100920.03
2022-08-08T02:32:44.064Z,100931.56
2022-08-08T02:36:04.525Z,100923.31
2022-08-08T02:38:50.737Z,100919.81
2022-08-08T02:42:04.693Z,100924.69
2022-08-08T02:44:59.299Z,100920.28
2022-08-08T02:48:05.109Z,100918.47
2022-08-08T02:50:55.686Z,100927.56
2022-08-08T02:53:33.588Z,100920.25
2022-08-08T02:56:33.049Z,100919.00
2022-08-08T03:00:01.631Z,100908.00
2022-08-08T03:02:55.581Z,100914.28
2022-08-08T03:05:45.248Z,100913.56
2022-08-08T03:08:51.727Z,100909.56
2022-08-08T03:12:02.802Z,100914.88
2022-08-08T03:15:58.109Z,100917.50
2022-08-08T03:17:59.808Z,100915.94
2022-08-08T03:20:51.667Z,100925.44
2022-08-08T03:23:24.607Z,100929.06
2022-08-08T03:26:06.800Z,100929.78
2022-08-08T03:28:38.675Z,100920.44
2022-08-08T03:31:28.428Z,100927.31
2022-08-08T03:34:04.897Z,100930.06
2022-08-08T03:36:34.636Z,100919.47
2022-08-08T03:39:15.232Z,100931.91
2022-08-08T03:42:12.931Z,100927.94
2022-08-08T03:44:38.757Z,100930.84
2022-08-08T03:47:19.706Z,100929.69
2022-08-08T03:50:00.894Z,100930.97
2022-08-08T03:52:34.111Z,100933.75
2022-08-08T03:55:55.216Z,100938.59
2022-08-08T03:58:31.721Z,100936.97
2022-08-08T04:01:01.676Z,100932.34
2022-08-08T04:03:59.155Z,100931.63
2022-08-08T04:06:29.826Z,100934.72
2022-08-08T04:09:10.389Z,100936.13
2022-08-08T04:11:48.539Z,100939.03
2022-08-08T04:14:34.806Z,100943.50
2022-08-08T04:17:22.813Z,100940.75
2022-08-08T04:19:56.550Z,100934.97
2022-08-08T04:22:29.426Z,100931.81
2022-08-08T04:24:59.444Z,100943.34
2022-08-08T04:28:03.326Z,100937.97
2022-08-08T04:30:23.892Z,100946.78
2022-08-08T04:32:53.449Z,100948.31
2022-08-08T04:35:23.297Z,100950.19
2022-08-08T04:37:53.200Z,100954.00
2022-08-08T04:40:25.265Z,100956.28
2022-08-08T04:43:01.575Z,100962.97
2022-08-08T04:45:31.462Z,100970.13
2022-08-08T04:48:03.608Z,100966.97
2022-08-08T04:50:37.802Z,100965.97
2022-08-08T04:53:14.311Z,100976.81
2022-08-08T04:55:57.879Z,100980.19
2022-08-08T04:58:29.901Z,100984.03
2022-08-08T05:00:59.358Z,100991.25
2022-08-08T05:04:09.527Z,100989.00
2022-08-08T05:06:25.784Z,100992.13
2022-08-08T05:09:02.707Z,100993.06
2022-08-08T05:11:38.927Z,100984.50
2022-08-08T05:14:12.893Z,100996.38
2022-08-08T05:16:52.483Z,100991.97
2022-08-08T05:20:11.366Z,100992.09
2022-08-08T05:22:19.226Z,100995.78
2022-08-08T05:24:49.481Z,101001.44
2022-08-08T05:27:19.255Z,101001.06
2022-08-08T05:29:52.267Z,101012.50
2022-08-08T05:32:28.052Z,101007.44
2022-08-08T05:35:05.142Z,101005.75
2022-08-08T05:37:52.278Z,101003.16
2022-08-08T05:40:28.432Z,100997.06
2022-08-08T05:43:02.092Z,101006.31
2022-08-08T05:45:42.859Z,101008.34
2022-08-08T05:48:28.495Z,101009.28
2022-08-08T05:51:14.596Z,101010.50
2022-08-08T05:54:24.107Z,101012.47
2022-08-08T05:56:34.937Z,101009.09
2022-08-08T05:59:12.674Z,101014.53
2022-08-08T06:01:55.443Z,101005.81
2022-08-08T06:04:29.621Z,101015.09
2022-08-08T06:07:01.899Z,101011.91
2022-08-08T06:10:00.532Z,101008.75
2022-08-08T06:12:29.612Z,101014.78
2022-08-08T06:15:01.100Z,101014.25
2022-08-08T06:17:51.564Z,101019.13
2022-08-08T06:20:26.198Z,101018.59
2022-08-08T06:22:56.338Z,101030.50
2022-08-08T06:25:33.119Z,101023.81
2022-08-08T06:28:18.031Z,101030.31
2022-08-08T06:30:49.785Z,101030.31
2022-08-08T06:33:36.954Z,101038.38
2022-08-08T06:36:12.046Z,101031.06
2022-08-08T06:38:43.974Z,101032.19
2022-08-08T06:41:15.443Z,101033.19
2022-08-08T06:43:47.652Z,101038.28
2022-08-08T06:46:29.991Z,101041.47
2022-08-08T06:49:02.215Z,101044.38
2022-08-08T06:51:49.068Z,101048.34
2022-08-08T06:54:21.121Z,101047.78
2022-08-08T06:56:53.031Z,101059.63
2022-08-08T06:59:22.493Z,101053.38
2022-08-08T07:02:26.610Z,101063.00
2022-08-08T07:04:51.728Z,101056.75
2022-08-08T07:07:26.105Z,101068.25
2022-08-08T07:10:00.915Z,101061.56
2022-08-08T07:12:33.310Z,101054.81
2022-08-08T07:15:06.621Z,101061.25
2022-08-08T07:18:01.877Z,101066.75
2022-08-08T07:20:50.485Z,101062.25
2022-08-08T07:23:23.483Z,101059.75
2022-08-08T07:25:54.437Z,101056.19
2022-08-08T07:28:31.453Z,101064.25
2022-08-08T07:31:01.417Z,101061.78
2022-08-08T07:33:37.890Z,101069.69
2022-08-08T07:36:23.685Z,101057.88
2022-08-08T07:38:53.919Z,101065.88
2022-08-08T07:41:25.190Z,101061.91
2022-08-08T07:43:54.851Z,101062.50
2022-08-08T07:46:30.715Z,101068.75
2022-08-08T07:49:00.622Z,101066.53
2022-08-08T07:51:44.931Z,101066.91
2022-08-08T07:54:27.150Z,101076.75
2022-08-08T07:57:16.969Z,101077.56
2022-08-08T07:59:51.277Z,101077.31
2022-08-08T08:02:35.349Z,101083.63
2022-08-08T08:05:15.014Z,101082.13
2022-08-08T08:07:52.943Z,101081.38
2022-08-08T08:10:30.575Z,101081.81
2022-08-08T08:13:25.789Z,101077.25
2022-08-08T08:16:12.656Z,101086.34
2022-08-08T08:18:55.608Z,101090.00
2022-08-08T08:21:44.038Z,101088.75
2022-08-08T08:24:18.882Z,101091.25
2022-08-08T08:26:54.847Z,101088.94
2022-08-08T08:29:27.980Z,101092.78
2022-08-08T08:32:03.267Z,101098.25
2022-08-08T08:34:35.492Z,101093.09
2022-08-08T08:37:08.362Z,101093.34
2022-08-08T08:40:00.968Z,101089.50
2022-08-08T08:42:35.644Z,101098.94
2022-08-08T08:45:21.709Z,101094.47
2022-08-08T08:47:54.723Z,101096.97
2022-08-08T08:50:33.520Z,101101.75
2022-08-08T08:53:54.438Z,101101.13
2022-08-08T08:56:02.421Z,101096.28
2022-08-08T08:58:35.496Z,101099.75
2022-08-08T09:01:10.230Z,101098.41
2022-08-08T09:03:47.884Z,101096.22
2022-08-08T09:06:26.549Z,101094.91
2022-08-08T09:08:57.583Z,101090.44
2022-08-08T09:11:33.025Z,101092.97
2022-08-08T09:14:03.217Z,101098.25
2022-08-08T09:16:33.298Z,101100.25
2022-08-08T09:19:02.738Z,101088.97
2022-08-08T09:22:02.948Z,101087.19
2022-08-08T09:24:22.239Z,101095.00
2022-08-08T09:27:02.542Z,101091.50
2022-08-08T09:29:34.169Z,101086.06
2022-08-08T09:32:05.816Z,101094.63
2022-08-08T09:34:42.166Z,101090.44
2022-08-08T09:37:46.314Z,101081.75
2022-08-08T09:40:11.791Z,101073.47
2022-08-08T09:42:51.444Z,101084.22
2022-08-08T09:45:54.875Z,101085.63
2022-08-08T09:48:21.928Z,101084.28
2022-08-08T09:50:56.708Z,101086.34
2022-08-08T09:53:54.377Z,101077.63
2022-08-08T09:56:24.938Z,101072.31
2022-08-08T09:59:20.185Z,101072.78
2022-08-08T10:01:59.120Z,101073.59
2022-08-08T10:04:42.095Z,101076.09
2022-08-08T10:07:15.718Z,101077.44
2022-08-08T10:09:59.132Z,101084.44
2022-08-08T10:12:38.616Z,101071.28
2022-08-08T10:15:27.341Z,101076.41
2022-08-08T10:18:09.057Z,101077.91
2022-08-08T10:20:58.193Z,101079.81
2022-08-08T10:23:55.598Z,101081.16
2022-08-08T10:26:58.534Z,101069.59
2022-08-08T10:29:23.178Z,101069.66
2022-08-08T10:32:12.297Z,101068.56
2022-08-08T10:34:46.330Z,101071.41
2022-08-08T10:37:16.131Z,101061.19
2022-08-08T10:39:54.706Z,101053.47
2022-08-08T10:42:27.382Z,101052.00
2022-08-08T10:45:02.707Z,101052.78
2022-08-08T10:47:44.010Z,101043.75
2022-08-08T10:50:18.273Z,101043.41
2022-08-08T10:52:47.725Z,101037.91
2022-08-08T10:55:40.918Z,101031.41
2022-08-08T10:58:08.213Z,101032.19
2022-08-08T11:00:53.205Z,101026.31
2022-08-08T11:03:36.461Z,101024.69
2022-08-08T11:06:06.245Z,101019.91
2022-08-08T11:08:53.610Z,101022.78
2022-08-08T11:11:32.026Z,101023.19
2022-08-08T11:14:16.341Z,101009.38
2022-08-08T11:16:47.933Z,101012.31
2022-08-08T11:19:21.078Z,101018.06
2022-08-08T11:21:55.604Z,101014.78
2022-08-08T11:24:25.696Z,101008.34
2022-08-08T11:26:57.166Z,101011.38
2022-08-08T11:29:41.397Z,101007.31
2022-08-08T11:32:16.862Z,101013.78
2022-08-08T11:35:27.957Z,101014.06
2022-08-08T11:38:43.485Z,100997.84
2022-08-08T11:40:31.454Z,101002.88
2022-08-08T11:43:01.147Z,100996.59
2022-08-08T11:45:36.736Z,100994.75
2022-08-08T11:48:20.273Z,100996.50
2022-08-08T11:50:52.801Z,100995.38
2022-08-08T11:53:24.218Z,100991.41
2022-08-08T11:55:54.109Z,100988.69
2022-08-08T11:58:34.880Z,100991.44
2022-08-08T12:01:12.491Z,100984.81
2022-08-08T12:03:48.213Z,100983.22
2022-08-08T12:06:22.245Z,100973.69
2022-08-08T12:08:53.792Z,100972.16
2022-08-08T12:11:28.506Z,100959.50
2022-08-08T12:14:05.826Z,100960.94
2022-08-08T12:16:46.612Z,100961.59
2022-08-08T12:19:31.206Z,100963.84
2022-08-08T12:22:13.211Z,100963.00
2022-08-08T12:24:53.907Z,100960.72
2022-08-08T12:27:26.538Z,100962.13
2022-08-08T12:29:59.007Z,100955.25
2022-08-08T12:32:31.393Z,100944.59
2022-08-08T12:35:16.885Z,100957.13
2022-08-08T12:38:02.915Z,100946.53
2022-08-08T12:40:54.083Z,100953.41
2022-08-08T12:43:32.960Z,100944.59
2022-08-08T12:46:26.424Z,100939.88
2022-08-08T12:49:25.173Z,100938.47
2022-08-08T12:51:58.876Z,100940.00
2022-08-08T12:54:36.532Z,100934.44
2022-08-08T12:57:17.695Z,100931.97
2022-08-08T13:00:04.421Z,100933.97
2022-08-08T13:02:37.030Z,100930.84
2022-08-08T13:05:25.669Z,100939.75
2022-08-08T13:08:03.951Z,100931.84
2022-08-08T13:10:55.709Z,100927.69
2022-08-08T13:13:35.005Z,100923.84
2022-08-08T13:16:19.546Z,100921.72
2022-08-08T13:18:56.970Z,100916.88
2022-08-08T13:21:48.641Z,100912.22
2022-08-08T13:24:19.068Z,100917.41
2022-08-08T13:27:12.282Z,100906.34
2022-08-08T13:29:51.068Z,100903.94
2022-08-08T13:32:23.590Z,100900.75
2022-08-08T13:34:55.687Z,100899.06
2022-08-08T13:37:28.058Z,100901.72
2022-08-08T13:40:17.969Z,100902.75
2022-08-08T13:42:59.679Z,100901.47
2022-08-08T13:45:30.893Z,100902.41
2022-08-08T13:48:01.006Z,100903.84
2022-08-08T13:50:38.335Z,100903.56
2022-08-08T13:53:25.077Z,100901.78
2022-08-08T13:56:01.543Z,100900.00
2022-08-08T13:58:34.625Z,100885.38
2022-08-08T14:01:13.850Z,100898.28
2022-08-08T14:03:55.176Z,100895.13
2022-08-08T14:06:32.866Z,100890.59
2022-08-08T14:09:18.474Z,100890.06
2022-08-08T14:11:54.429Z,100886.13
2022-08-08T14:14:27.295Z,100894.13
2022-08-08T14:16:57.281Z,100888.66
2022-08-08T14:19:57.403Z,100891.38
2022-08-08T14:22:25.804Z,100893.81
2022-08-08T14:24:59.854Z,100891.56
2022-08-08T14:27:30.823Z,100889.59
2022-08-08T14:30:17.294Z,100888.84
2022-08-08T14:32:53.129Z,100887.03
2022-08-08T14:35:35.908Z,100880.06
2022-08-08T14:38:33.064Z,100879.03
2022-08-08T14:40:59.075Z,100891.50
2022-08-08T14:44:02.577Z,100884.97
2022-08-08T14:46:32.520Z,100878.88
2022-08-08T14:49:09.377Z,100877.94
2022-08-08T14:51:53.350Z,100885.84
2022-08-08T14:54:29.343Z,100876.88
2022-08-08T14:56:59.360Z,100878.41
2022-08-08T14:59:44.732Z,100882.78
2022-08-08T15:02:31.022Z,100879.41
2022-08-08T15:05:10.680Z,100875.50
2022-08-08T15:07:41.551Z,100877.47
2022-08-08T15:10:13.050Z,100882.50
2022-08-08T15:12:42.686Z,100875.66
2022-08-08T15:15:18.822Z,100881.38
2022-08-08T15:18:05.972Z,100875.38
2022-08-08T15:20:35.553Z,100882.25
2022-08-08T15:23:05.887Z,100885.22
2022-08-08T15:25:35.352Z,100879.97
2022-08-08T15:28:33.699Z,100875.09
2022-08-08T15:31:00.865Z,100883.34
2022-08-08T15:33:35.544Z,100872.84
2022-08-08T15:36:08.682Z,100881.22
2022-08-08T15:38:40.595Z,100873.78
2022-08-08T15:41:24.601Z,100872.00
2022-08-08T15:44:00.526Z,100880.31
2022-08-08T15:46:34.811Z,100879.91
2022-08-08T15:49:07.481Z,100881.50
2022-08-08T15:51:39.414Z,100878.56
2022-08-08T15:54:18.306Z,100873.41
2022-08-08T15:56:48.496Z,100859.91
2022-08-08T15:59:17.945Z,100872.25
2022-08-08T16:01:59.762Z,100869.50
2022-08-08T16:04:32.740Z,100867.09
2022-08-08T16:07:02.276Z,100865.78
2022-08-08T16:13:14.182Z,100868.22
2022-08-08T16:13:20.429Z,100871.13
2022-08-08T16:15:12.503Z,100859.75
2022-08-08T16:18:06.341Z,100871.75
2022-08-08T16:20:37.975Z,100867.19
2022-08-08T16:23:11.632Z,100859.22
2022-08-08T16:25:45.761Z,100867.31
2022-08-08T16:28:32.637Z,100870.16
2022-08-08T16:31:07.651Z,100869.06
2022-08-08T16:33:38.678Z,100860.16
2022-08-08T16:36:15.770Z,100863.81
2022-08-08T16:38:53.566Z,100863.28
2022-08-08T16:41:23.562Z,100856.38
2022-08-08T16:43:53.691Z,100866.03
2022-08-08T16:46:43.680Z,100860.19
2022-08-08T16:49:14.194Z,100860.41
2022-08-08T16:55:06.929Z,100854.88
2022-08-08T16:55:07.217Z,100865.84
2022-08-08T16:58:13.201Z,100865.50
2022-08-08T17:00:21.473Z,100862.03
2022-08-08T17:02:56.671Z,100859.59
2022-08-08T17:05:31.304Z,100861.47
2022-08-08T17:08:16.869Z,100865.03
2022-08-08T17:10:57.489Z,100861.81
2022-08-08T17:13:50.003Z,100864.50
2022-08-08T17:16:22.295Z,100863.38
2022-08-08T17:18:53.910Z,100862.34
2022-08-08T17:21:26.073Z,100861.47
2022-08-08T17:24:02.736Z,100860.38
2022-08-08T17:26:33.126Z,100859.03
2022-08-08T17:29:04.476Z,100865.50
2022-08-08T17:31:44.243Z,100862.63
2022-08-08T17:34:53.490Z,100872.72
2022-08-08T17:37:06.689Z,100877.72
2022-08-08T17:40:04.944Z,100884.19
2022-08-08T17:42:32.716Z,100877.44
2022-08-08T17:45:02.739Z,100880.50
2022-08-08T17:47:40.256Z,100886.47
2022-08-08T17:50:11.159Z,100886.63
2022-08-08T17:52:43.103Z,100884.75
2022-08-08T17:56:04.774Z,100887.78
2022-08-08T17:58:05.190Z,100893.25
2022-08-08T18:00:38.971Z,100899.03
2022-08-08T18:03:13.096Z,100900.47
2022-08-08T18:05:49.076Z,100901.78
2022-08-08T18:08:24.901Z,100899.81
2022-08-08T18:11:15.301Z,100907.69
2022-08-08T18:13:46.417Z,100905.09
2022-08-08T18:16:23.099Z,100910.72
2022-08-08T18:18:56.641Z,100905.88
2022-08-08T18:21:59.050Z,100910.22
2022-08-08T18:24:18.944Z,100906.97
2022-08-08T18:26:56.634Z,100910.81
2022-08-08T18:29:33.167Z,100911.72
2022-08-08T18:32:04.561Z,100906.50
2022-08-08T18:34:35.090Z,100916.25
2022-08-08T18:37:06.626Z,100921.50
2022-08-08T18:39:37.849Z,100917.91
2022-08-08T18:42:15.691Z,100925.50
2022-08-08T18:44:54.863Z,100924.03
2022-08-08T18:47:26.001Z,100921.53
2022-08-08T18:50:00.365Z,100934.91
2022-08-08T18:52:33.929Z,100935.16
2022-08-08T18:55:10.209Z,100937.81
2022-08-08T18:57:45.374Z,100934.41
2022-08-08T19:00:20.123Z,100937.63
2022-08-08T19:02:57.083Z,100939.91
2022-08-08T19:05:34.006Z,100951.44
2022-08-08T19:08:24.821Z,100945.88
2022-08-08T19:10:58.883Z,100957.47
2022-08-08T19:13:53.891Z,100953.41
2022-08-08T19:16:23.618Z,100958.34
2022-08-08T19:19:02.033Z,100957.47
2022-08-08T19:21:33.297Z,100964.41
2022-08-08T19:24:43.617Z,100957.44
2022-08-08T19:27:08.761Z,100970.41
2022-08-08T19:29:45.746Z,100965.03
2022-08-08T19:32:19.637Z,100970.56
2022-08-08T19:34:52.919Z,100967.06
2022-08-08T19:37:42.725Z,100976.41
2022-08-08T19:40:16.271Z,100977.25
2022-08-08T19:42:46.173Z,100975.50
2022-08-08T19:45:58.658Z,100975.72
2022-08-08T19:48:28.779Z,100980.56
2022-08-08T19:50:59.044Z,100985.41
2022-08-08T19:53:53.536Z,101001.41
2022-08-08T19:56:25.709Z,101001.28
2022-08-08T19:59:08.129Z,101007.88
2022-08-08T20:02:01.843Z,101003.13
2022-08-08T20:04:30.327Z,101013.59
2022-08-08T20:07:05.406Z,101020.00
2022-08-08T20:09:55.888Z,101029.03
2022-08-08T20:12:31.939Z,101024.81
2022-08-08T20:15:15.072Z,101027.34
2022-08-08T20:17:49.867Z,101026.13
2022-08-08T20:20:22.212Z,101032.38
2022-08-08T20:22:54.052Z,101029.56
2022-08-08T20:25:29.780Z,101022.16
2022-08-08T20:28:07.103Z,101033.66
2022-08-08T20:30:56.111Z,101022.16
2022-08-08T20:34:03.608Z,101028.44
2022-08-08T20:36:22.308Z,101030.00
2022-08-08T20:38:51.967Z,101034.38
2022-08-08T20:41:21.410Z,101032.56
2022-08-08T20:43:50.972Z,101040.00
2022-08-08T20:46:25.639Z,101038.66
2022-08-08T20:48:59.916Z,101041.59
2022-08-08T20:51:32.443Z,101040.59
2022-08-08T20:54:13.976Z,101040.31
2022-08-08T20:57:17.153Z,101050.94
2022-08-08T20:59:41.200Z,101052.03
2022-08-08T21:02:12.441Z,101054.47
2022-08-08T21:04:47.649Z,101062.56
2022-08-08T21:07:31.231Z,101060.09
2022-08-08T21:10:13.091Z,101060.06
2022-08-08T21:12:44.548Z,101069.53
2022-08-08T21:15:16.780Z,101062.03
2022-08-08T21:18:05.549Z,101071.03
2022-08-08T21:20:37.705Z,101067.00
2022-08-08T21:23:09.292Z,101074.34
2022-08-08T21:25:38.913Z,101074.94
2022-08-08T21:28:15.036Z,101078.28
2022-08-08T21:30:52.042Z,101078.00
2022-08-08T21:33:22.078Z,101076.94
2022-08-08T21:36:14.505Z,101088.03
2022-08-08T21:38:43.516Z,101079.19
2022-08-08T21:41:18.521Z,101086.25
2022-08-08T21:44:04.302Z,101083.34
2022-08-08T21:48:00.658Z,101085.25
2022-08-08T21:49:23.162Z,101084.25
2022-08-08T21:54:33.037Z,101084.56
2022-08-08T21:55:03.469Z,101086.41
2022-08-08T21:57:42.902Z,101087.50
2022-08-08T22:00:26.191Z,101086.97
2022-08-08T22:02:55.788Z,101087.25
2022-08-08T22:05:25.290Z,101080.47
2022-08-08T22:08:01.686Z,101092.66
2022-08-08T22:10:32.528Z,101091.28
2022-08-08T22:13:17.736Z,101084.56
2022-08-08T22:15:59.487Z,101090.78
2022-08-08T22:18:29.659Z,101080.22
2022-08-08T22:21:01.576Z,101085.94
2022-08-08T22:23:50.362Z,101088.38
2022-08-08T22:26:28.754Z,101088.38
2022-08-08T22:29:14.966Z,101087.56
2022-08-08T22:31:58.214Z,101094.91
2022-08-08T22:34:31.623Z,101090.28
2022-08-08T22:37:01.080Z,101089.50
2022-08-08T22:39:46.332Z,101094.91
2022-08-08T22:42:23.901Z,101087.59
2022-08-08T22:44:57.072Z,101087.34
2022-08-08T22:47:37.556Z,101089.50
2022-08-08T22:50:25.415Z,101085.47
2022-08-08T22:54:15.753Z,101079.78
2022-08-08T22:55:58.722Z,101088.19
2022-08-08T22:58:30.865Z,101080.59
2022-08-08T23:01:01.104Z,101092.22
2022-08-08T23:03:52.557Z,101088.16
2022-08-08T23:06:20.130Z,101093.03
2022-08-08T23:08:55.576Z,101089.78
2022-08-08T23:12:28.968Z,101086.00
2022-08-08T23:14:21.139Z,101093.03
2022-08-08T23:16:59.067Z,101083.84
2022-08-08T23:19:30.897Z,101087.63
2022-08-08T23:22:01.620Z,101083.03
2022-08-08T23:24:36.330Z,101090.59
2022-08-08T23:27:09.663Z,101086.78
2022-08-08T23:29:39.318Z,101084.38
2022-08-08T23:32:11.715Z,101095.47
2022-08-08T23:34:49.586Z,101097.59
2022-08-08T23:38:01.960Z,101102.75
2022-08-08T23:40:22.052Z,101101.38
2022-08-08T23:42:54.904Z,101094.06
2022-08-08T23:49:03.021Z,101094.91
2022-08-08T23:49:05.324Z,101091.91
2022-08-08T23:51:03.182Z,101090.28
2022-08-08T23:54:06.319Z,101088.41
2022-08-08T23:56:23.839Z,101090.53
2022-08-08T23:59:04.241Z,101088.34
